Time;durP1;ratioP1;P1;durP2;ratioP2;P2;SDS_P1;SDS_P2;PMS_P1;PMS_P2;Temp;Humidity;BMP_temperature;BMP_pressure;BME280_temperature;BME280_humidity;BME280_pressure;Samples;Min_cycle;Max_cycle;Signal;HPM_P1;HPM_P2
2021/05/01 00:01:41;;;;;;;29.17;25.13;;;9.60;78.90;;;8.27;74.26;95598.34;5012937;28;20040;-68
2021/05/01 00:04:06;;;;;;;29.65;25.48;;;9.70;78.70;;;8.26;74.20;95607.22;5037203;28;20604;-68
2021/05/01 00:06:32;;;;;;;32.05;26.75;;;9.60;78.90;;;8.25;74.63;95610.84;5017315;28;20052;-68
2021/05/01 00:08:58;;;;;;;32.20;27.45;;;9.60;79.10;;;8.19;74.68;95606.34;5019231;28;20033;-68
2021/05/01 00:11:25;;;;;;;32.03;27.05;;;9.40;79.90;;;8.15;74.51;95605.09;5038159;28;20030;-68
2021/05/01 00:13:55;;;;;;;30.70;26.20;;;9.30;80.10;;;8.12;74.59;95606.25;4998627;28;20039;-68
2021/05/01 00:16:22;;;;;;;30.53;25.87;;;9.30;80.10;;;8.10;74.98;95607.44;5022551;28;20564;-68
2021/05/01 00:18:47;;;;;;;30.20;26.27;;;9.40;80.30;;;8.09;74.69;95616.28;5020458;28;20067;-68
2021/05/01 00:21:13;;;;;;;30.60;27.25;;;9.40;80.30;;;8.08;74.83;95623.34;5037991;28;20431;-68
2021/05/01 00:23:39;;;;;;;32.20;26.77;;;9.40;79.80;;;8.09;74.30;95627.59;5009689;28;20115;-69
2021/05/01 00:26:04;;;;;;;31.52;26.17;;;9.40;79.60;;;8.09;74.84;95621.53;5002046;28;20393;-68
2021/05/01 00:28:30;;;;;;;31.30;27.20;;;9.50;79.40;;;8.07;74.69;95615.66;5004797;28;20061;-68
2021/05/01 00:30:56;;;;;;;30.38;27.08;;;9.40;80.10;;;8.06;75.14;95612.25;5024171;28;20059;-69
2021/05/01 00:33:22;;;;;;;32.35;26.77;;;9.40;79.80;;;8.07;75.42;95619.09;5015286;28;20419;-69
2021/05/01 00:35:48;;;;;;;32.97;27.67;;;9.50;79.50;;;8.06;75.01;95611.44;5025772;28;20033;-69
2021/05/01 00:38:14;;;;;;;32.45;27.75;;;9.50;79.50;;;8.03;74.78;95606.56;5021406;28;20489;-69
2021/05/01 00:40:39;;;;;;;32.17;27.45;;;9.40;79.80;;;8.05;74.51;95599.34;5024580;28;20059;-69
2021/05/01 00:43:05;;;;;;;32.22;27.55;;;9.50;79.60;;;8.01;75.21;95592.84;5004542;28;20075;-68
2021/05/01 00:45:31;;;;;;;32.97;28.33;;;9.30;79.80;;;7.97;75.59;95600.25;5040947;28;20036;-68
2021/05/01 00:47:57;;;;;;;33.17;27.90;;;9.20;80.40;;;7.98;75.42;95602.69;5004636;28;20048;-69
2021/05/01 00:50:22;;;;;;;31.60;27.45;;;9.40;79.90;;;7.97;75.65;95601.06;4990098;28;20036;-68
2021/05/01 00:52:48;;;;;;;33.22;28.40;;;9.30;79.70;;;7.96;75.18;95599.47;5007167;28;20034;-68
2021/05/01 00:55:14;;;;;;;33.80;27.63;;;9.40;80.00;;;7.97;75.46;95598.47;5010208;28;20060;-69
2021/05/01 00:57:40;;;;;;;34.58;29.05;;;9.40;79.90;;;7.98;75.95;95600.09;4994493;28;20112;-68
2021/05/01 01:00:22;;;;;;;32.15;28.52;;;9.40;79.90;;;7.97;75.34;95602.88;5021016;28;20558;-68
2021/05/01 01:02:48;;;;;;;35.08;28.98;;;9.40;79.60;;;7.93;74.90;95605.06;5021791;28;20067;-69
2021/05/01 01:05:14;;;;;;;36.05;29.83;;;9.30;79.90;;;7.91;76.04;95593.94;5012661;28;20079;-68
2021/05/01 01:07:40;;;;;;;34.83;30.15;;;9.40;80.20;;;7.89;76.04;95585.47;4973881;28;20372;-68
2021/05/01 01:10:06;;;;;;;36.30;30.55;;;9.50;79.70;;;7.91;76.11;95587.88;5010463;28;20032;-68
2021/05/01 01:12:32;;;;;;;34.75;29.73;;;9.40;80.00;;;7.90;75.66;95581.84;4999372;28;20116;-68
2021/05/01 01:14:59;;;;;;;35.15;30.33;;;9.30;79.70;;;7.88;75.82;95580.41;5003308;28;20390;-68
2021/05/01 01:17:24;;;;;;;35.97;30.15;;;9.30;80.00;;;7.89;75.62;95574.97;4994927;28;20497;-69
2021/05/01 01:19:50;;;;;;;36.15;29.63;;;9.40;79.90;;;7.89;76.15;95574.97;5003074;28;20037;-68
2021/05/01 01:22:17;;;;;;;35.20;29.00;;;9.40;79.90;;;7.88;75.70;95578.59;5001854;28;20047;-68
2021/05/01 01:24:42;;;;;;;34.30;29.50;;;9.50;79.50;;;7.88;75.91;95583.84;5002514;28;20055;-68
2021/05/01 01:27:08;;;;;;;37.33;31.17;;;9.50;79.60;;;7.91;76.36;95583.47;5010307;28;20521;-69
2021/05/01 01:29:39;;;;;;;35.33;30.70;;;9.60;79.40;;;7.95;76.69;95573.47;5021713;28;20052;-68
2021/05/01 01:32:09;;;;;;;37.95;31.55;;;9.60;79.70;;;7.97;76.82;95587.16;5010017;28;20037;-69
2021/05/01 01:34:34;;;;;;;36.85;30.60;;;9.60;79.40;;;7.96;76.49;95581.13;5014708;28;20052;-68
2021/05/01 01:37:00;;;;;;;40.88;31.90;;;9.60;79.70;;;7.97;76.29;95582.75;5001683;28;20500;-69
2021/05/01 01:39:26;;;;;;;35.70;30.98;;;9.60;79.60;;;7.99;76.29;95579.94;5011510;28;20136;-69
2021/05/01 01:41:52;;;;;;;38.83;32.25;;;9.60;79.60;;;7.99;75.78;95580.75;5011393;28;20041;-69
2021/05/01 01:44:17;;;;;;;38.35;30.77;;;9.60;79.90;;;8.02;76.29;95589.22;4981186;28;20412;-69
2021/05/01 01:46:43;;;;;;;37.28;31.77;;;9.60;79.60;;;8.02;76.53;95584.81;5026826;28;20029;-69
2021/05/01 01:49:09;;;;;;;35.67;29.27;;;9.70;79.60;;;8.04;76.28;95588.03;5003280;28;20045;-69
2021/05/01 01:51:35;;;;;;;40.70;31.77;;;9.70;79.50;;;8.02;76.57;95591.84;4993631;28;20539;-69
2021/05/01 01:54:00;;;;;;;39.45;32.13;;;9.70;79.30;;;8.03;76.17;95591.66;5011533;28;20429;-69
2021/05/01 01:56:27;;;;;;;39.05;31.92;;;9.60;79.20;;;8.01;75.91;95596.28;5004515;28;20108;-68
2021/05/01 01:58:53;;;;;;;37.92;31.30;;;9.60;79.30;;;8.03;76.33;95596.09;4992414;28;20033;-69
2021/05/01 02:01:20;;;;;;;40.28;31.65;;;9.70;79.20;;;8.05;76.03;95600.16;5010052;28;20025;-68
2021/05/01 02:03:46;;;;;;;38.05;31.55;;;9.70;78.90;;;8.07;76.29;95603.38;5014714;28;20034;-69
2021/05/01 02:06:11;;;;;;;38.72;32.17;;;9.70;78.80;;;8.07;76.05;95603.38;5037474;28;20712;-68
2021/05/01 02:08:37;;;;;;;41.22;31.13;;;9.70;79.10;;;8.08;76.32;95598.97;5014270;28;20045;-68
2021/05/01 02:11:03;;;;;;;38.97;30.60;;;9.80;79.10;;;8.06;76.02;95607.00;5015483;28;20044;-69
2021/05/01 02:13:29;;;;;;;39.05;32.15;;;9.70;78.70;;;8.06;76.22;95600.94;5040804;28;20033;-68
2021/05/01 02:15:54;;;;;;;40.38;30.55;;;9.70;78.90;;;8.04;75.93;95592.47;5030934;28;20059;-68
2021/05/01 02:18:20;;;;;;;38.50;31.15;;;9.70;78.80;;;8.08;76.58;95598.97;5024170;28;20033;-68
2021/05/01 02:20:46;;;;;;;39.88;31.90;;;9.70;78.70;;;8.06;75.46;95595.72;5010482;28;20686;-68
2021/05/01 02:23:12;;;;;;;37.28;30.90;;;9.70;78.20;;;8.06;76.14;95588.66;5027130;28;20463;-69
2021/05/01 02:25:38;;;;;;;40.20;31.77;;;9.70;78.80;;;8.10;76.39;95583.88;5034297;28;20059;-69
2021/05/01 02:28:03;;;;;;;39.17;31.45;;;9.80;79.10;;;8.10;76.28;95592.53;5038184;28;20640;-69
2021/05/01 02:30:29;;;;;;;39.45;32.97;;;9.80;78.80;;;8.09;76.14;95592.72;5003341;28;20041;-68
2021/05/01 02:32:56;;;;;;;39.90;32.70;;;9.70;79.10;;;8.11;76.15;95593.34;5001315;28;20040;-68
2021/05/01 02:35:28;;;;;;;40.17;32.60;;;9.80;79.50;;;8.09;77.09;95606.63;5001741;28;20030;-68
2021/05/01 02:37:54;;;;;;;43.13;34.22;;;9.80;79.30;;;8.10;76.35;95603.00;4982661;28;20498;-68
2021/05/01 02:40:20;;;;;;;44.28;34.17;;;9.80;79.20;;;8.11;76.63;95603.81;5045404;28;20024;-69
2021/05/01 02:42:46;;;;;;;42.30;33.17;;;9.80;79.20;;;8.13;76.23;95596.59;5005368;28;20119;-69
2021/05/01 02:45:15;;;;;;;42.72;33.22;;;9.80;78.90;;;8.12;77.11;95579.25;4993084;28;20029;-69
2021/05/01 02:47:41;;;;;;;40.42;33.83;;;9.80;79.00;;;8.14;76.42;95585.09;5003724;28;20238;-68
2021/05/01 02:50:08;;;;;;;42.25;33.45;;;9.80;79.10;;;8.15;76.55;95578.91;5011402;28;20123;-69
2021/05/01 02:52:33;;;;;;;40.88;32.92;;;9.90;79.10;;;8.17;76.40;95576.91;5046589;28;20119;-69
2021/05/01 02:54:59;;;;;;;39.88;32.45;;;9.90;79.20;;;8.17;76.50;95576.91;5018351;28;20672;-69
2021/05/01 02:57:25;;;;;;;41.75;32.80;;;9.80;78.60;;;8.16;76.62;95580.53;4998864;28;20236;-68
2021/05/01 02:59:51;;;;;;;42.58;34.10;;;9.90;79.00;;;8.15;76.68;95584.13;5006760;28;20026;-69
2021/05/01 03:02:17;;;;;;;40.85;32.83;;;9.80;78.90;;;8.15;76.86;95581.53;5012632;28;20036;-68
2021/05/01 03:04:42;;;;;;;42.97;34.08;;;9.80;78.90;;;8.14;76.35;95587.72;5021253;28;20270;-69
2021/05/01 03:07:08;;;;;;;40.88;32.50;;;9.90;78.60;;;8.14;76.17;95587.72;5031706;28;20458;-68
2021/05/01 03:09:34;;;;;;;41.00;32.58;;;9.80;78.60;;;8.12;76.40;95584.50;5038927;28;20094;-68
2021/05/01 03:11:59;;;;;;;40.15;33.20;;;9.80;78.60;;;8.14;76.30;95585.09;5033654;28;20037;-69
2021/05/01 03:14:25;;;;;;;40.20;33.30;;;9.80;79.00;;;8.09;76.40;95574.38;5008895;28;20496;-68
2021/05/01 03:16:52;;;;;;;40.88;32.80;;;9.80;79.30;;;8.13;77.16;95567.78;4997150;28;20049;-68
2021/05/01 03:19:18;;;;;;;41.47;32.92;;;9.90;79.30;;;8.12;76.95;95569.59;5009396;28;20033;-68
2021/05/01 03:21:44;;;;;;;39.38;32.53;;;9.90;79.30;;;8.12;76.48;95556.47;4991099;28;20072;-69
2021/05/01 03:24:11;;;;;;;41.53;33.60;;;9.80;79.10;;;8.12;76.81;95553.88;5005773;28;20060;-69
2021/05/01 03:26:37;;;;;;;41.65;32.63;;;9.90;79.30;;;8.13;76.69;95558.09;5007854;28;20045;-69
2021/05/01 03:29:02;;;;;;;39.83;31.80;;;9.90;79.40;;;8.14;77.10;95561.53;5026391;28;20134;-68
2021/05/01 03:31:28;;;;;;;38.50;31.58;;;9.90;79.40;;;8.15;77.75;95568.44;4994989;28;20079;-68
2021/05/01 03:33:54;;;;;;;39.30;31.15;;;9.90;79.20;;;8.14;77.14;95561.53;5006577;28;20037;-69
2021/05/01 03:36:20;;;;;;;40.08;32.15;;;9.90;79.10;;;8.13;76.93;95544.19;5013996;28;20404;-69
2021/05/01 03:38:45;;;;;;;38.80;30.48;;;9.90;78.60;;;8.14;76.72;95545.81;5016540;28;20048;-70
2021/05/01 03:41:11;;;;;;;39.42;30.48;;;9.90;78.50;;;8.15;76.28;95542.22;5026252;28;20043;-69
2021/05/01 03:43:37;;;;;;;36.75;29.60;;;9.90;78.40;;;8.15;76.86;95526.50;5012098;28;20033;-71
2021/05/01 03:46:02;;;;;;;37.83;30.92;;;9.90;78.30;;;8.15;77.38;95532.56;5003621;28;20037;-68
2021/05/01 03:48:28;;;;;;;35.75;28.88;;;9.90;78.70;;;8.14;76.28;95530.09;5020202;28;20028;-69
2021/05/01 03:50:54;;;;;;;36.35;29.58;;;9.90;78.20;;;8.14;76.30;95528.28;4995235;28;20132;-69
2021/05/01 03:53:21;;;;;;;36.30;29.85;;;9.90;78.10;;;8.14;76.23;95524.84;5008013;28;20093;-69
2021/05/01 03:55:47;;;;;;;35.92;30.33;;;9.90;78.60;;;8.13;76.83;95531.09;5004646;28;20048;-71
2021/05/01 03:58:13;;;;;;;38.67;30.70;;;9.90;78.60;;;8.12;76.66;95534.72;5010585;28;20029;-72
2021/05/01 04:00:38;;;;;;;37.10;30.63;;;9.80;78.60;;;8.11;76.55;95541.75;5006631;28;20038;-68
2021/05/01 04:03:04;;;;;;;39.80;31.85;;;9.80;79.00;;;8.10;76.48;95539.34;5027156;28;20466;-68
2021/05/01 04:05:30;;;;;;;38.85;32.00;;;9.80;78.90;;;8.09;76.51;95537.72;5044920;28;20469;-68
2021/05/01 04:07:56;;;;;;;38.03;31.15;;;9.80;78.80;;;8.09;76.46;95533.28;5040220;28;20047;-69
2021/05/01 04:10:21;;;;;;;40.47;32.53;;;9.80;79.20;;;8.10;77.08;95531.47;5008195;28;20025;-68
2021/05/01 04:12:47;;;;;;;40.20;30.27;;;9.80;79.40;;;8.11;76.73;95525.25;5011727;28;20029;-68
2021/05/01 04:15:13;;;;;;;40.65;32.95;;;9.90;79.30;;;8.12;77.12;95519.00;4996697;28;20061;-68
2021/05/01 04:17:39;;;;;;;39.38;32.45;;;9.90;79.20;;;8.11;76.86;95520.00;5044539;28;20385;-68
2021/05/01 04:20:06;;;;;;;41.22;31.63;;;9.90;79.30;;;8.14;76.89;95524.84;5009697;28;20032;-68
2021/05/01 04:22:32;;;;;;;41.75;32.55;;;10.00;79.20;;;8.15;77.43;95532.56;4987279;28;20473;-68
2021/05/01 04:24:57;;;;;;;38.88;31.85;;;10.00;79.00;;;8.18;77.16;95524.31;5024831;28;20029;-69
2021/05/01 04:27:23;;;;;;;38.38;31.60;;;10.00;79.00;;;8.20;77.42;95514.47;5006822;28;20541;-67
2021/05/01 04:29:49;;;;;;;45.45;32.13;;;10.00;79.10;;;8.23;77.19;95529.00;5006726;28;20093;-69
2021/05/01 04:32:14;;;;;;;42.38;32.55;;;10.00;79.20;;;8.22;77.14;95524.75;5028084;28;20114;-67
2021/05/01 04:34:40;;;;;;;39.70;31.83;;;10.10;78.90;;;8.20;76.77;95513.66;5010511;28;20036;-68
2021/05/01 04:37:06;;;;;;;40.28;32.00;;;10.10;78.20;;;8.18;76.95;95518.28;4998688;28;20037;-70
2021/05/01 04:39:32;;;;;;;40.00;31.67;;;10.10;78.10;;;8.18;76.91;95510.41;5011494;28;20036;-69
2021/05/01 04:41:58;;;;;;;39.42;31.45;;;10.10;78.30;;;8.16;77.36;95528.94;5011023;28;20044;-67
2021/05/01 04:44:24;;;;;;;39.63;30.95;;;10.10;77.80;;;8.20;77.12;95539.84;5010870;28;20164;-69
2021/05/01 04:46:53;;;;;;;40.58;31.90;;;10.10;78.40;;;8.22;77.92;95548.34;4992744;28;20099;-69
2021/05/01 04:49:19;;;;;;;38.65;31.70;;;10.10;78.70;;;8.25;77.12;95546.16;4999189;28;20547;-69
2021/05/01 04:51:44;;;;;;;37.95;30.83;;;10.10;78.90;;;8.27;76.99;95548.56;4984820;28;20029;-69
2021/05/01 04:54:10;;;;;;;39.13;30.10;;;10.20;78.80;;;8.29;76.54;95557.06;4997896;28;20028;-68
2021/05/01 04:56:36;;;;;;;35.70;28.77;;;10.20;77.60;;;8.30;76.82;95558.66;5041112;28;20037;-69
2021/05/01 04:59:03;;;;;;;37.00;30.42;;;10.10;77.50;;;8.29;76.75;95564.91;4994995;28;20036;-69
2021/05/01 05:01:29;;;;;;;36.70;28.98;;;10.10;77.40;;;8.30;76.63;95561.28;4996415;28;20086;-69
2021/05/01 05:03:55;;;;;;;35.05;29.08;;;10.10;77.60;;;8.31;76.54;95557.66;5000904;28;20068;-68
2021/05/01 05:06:20;;;;;;;39.05;30.73;;;10.10;77.80;;;8.30;76.70;95559.47;5013113;28;20113;-69
2021/05/01 05:08:46;;;;;;;35.97;29.13;;;10.10;78.30;;;8.32;76.79;95554.06;5023541;28;20044;-69
2021/05/01 05:11:12;;;;;;;38.45;30.67;;;10.20;78.40;;;8.35;76.85;95547.66;5019793;28;20030;-68
2021/05/01 05:13:38;;;;;;;39.20;30.92;;;10.20;78.30;;;8.39;77.41;95552.34;5006857;28;20444;-70
2021/05/01 05:16:04;;;;;;;35.92;28.20;;;10.40;78.60;;;8.42;77.23;95548.53;5020455;28;20539;-69
2021/05/01 05:18:30;;;;;;;39.58;29.55;;;10.30;78.50;;;8.49;77.11;95537.09;5027652;28;20598;-70
2021/05/01 05:20:55;;;;;;;33.17;27.02;;;10.50;78.70;;;8.51;77.30;95527.25;5010103;28;20044;-71
2021/05/01 05:23:21;;;;;;;33.83;27.13;;;10.50;76.90;;;8.54;76.93;95531.28;5011262;28;20041;-70
2021/05/01 05:25:47;;;;;;;31.30;26.50;;;10.50;76.90;;;8.57;76.57;95536.94;5010998;28;20543;-69
2021/05/01 05:28:12;;;;;;;31.98;26.75;;;10.60;76.70;;;8.64;76.95;95529.16;4995325;28;20057;-69
2021/05/01 05:30:38;;;;;;;32.47;26.90;;;10.60;76.60;;;8.72;76.60;95530.81;5027533;28;20420;-68
2021/05/01 05:33:04;;;;;;;30.85;26.63;;;10.70;76.60;;;8.78;76.40;95535.28;4981656;28;20030;-69
2021/05/01 05:35:30;;;;;;;31.23;26.67;;;10.70;76.80;;;8.82;75.91;95544.38;5008773;28;20135;-69
2021/05/01 05:37:55;;;;;;;33.30;28.33;;;10.90;76.20;;;8.88;76.34;95543.66;5027951;28;20113;-69
2021/05/01 05:40:21;;;;;;;32.72;26.33;;;10.80;75.90;;;8.94;75.99;95537.63;4998791;28;20100;-69
2021/05/01 05:42:49;;;;;;;31.05;25.20;;;10.90;76.20;;;8.94;76.43;95531.56;5030142;28;20106;-70
2021/05/01 05:45:22;;;;;;;29.60;24.73;;;11.00;75.50;;;8.97;75.61;95529.38;5014420;28;20033;-69
2021/05/01 05:47:48;;;;;;;31.80;26.05;;;11.00;74.40;;;9.02;75.28;95529.59;5016397;28;20133;-69
2021/05/01 05:50:37;;;;;;;29.15;24.60;;;11.10;74.90;;;9.04;76.03;95522.34;4999134;28;20102;-68
2021/05/01 05:53:03;;;;;;;31.88;25.80;;;11.10;74.80;;;9.08;75.45;95522.78;5031692;22;21373;-64
2021/05/01 05:55:28;;;;;;;30.77;26.00;;;11.00;74.80;;;9.08;75.73;95515.72;5012070;28;20833;-69
2021/05/01 05:57:55;;;;;;;32.72;25.42;;;11.10;75.40;;;9.11;75.14;95512.72;5039657;28;20530;-67
2021/05/01 06:00:23;;;;;;;31.38;25.95;;;11.10;75.00;;;9.17;75.95;95513.75;5068303;28;20119;-68
2021/05/01 06:02:49;;;;;;;33.70;27.58;;;11.20;75.30;;;9.23;75.12;95505.09;5000377;28;20052;-71
2021/05/01 06:05:26;;;;;;;34.67;27.50;;;11.30;75.00;;;9.32;75.73;95503.13;4998667;28;20585;-71
2021/05/01 06:07:58;;;;;;;29.92;24.83;;;11.40;74.90;;;9.36;75.55;95483.34;4980336;28;20038;-70
2021/05/01 06:10:23;;;;;;;29.67;24.70;;;11.40;74.70;;;9.42;75.16;95487.81;5002111;28;20033;-69
2021/05/01 06:12:49;;;;;;;28.52;23.85;;;11.50;74.20;;;9.50;75.32;95485.84;4992598;28;20052;-66
2021/05/01 06:15:16;;;;;;;30.38;24.48;;;11.60;74.20;;;9.60;75.35;95490.69;4999319;28;20072;-68
2021/05/01 06:17:43;;;;;;;29.48;23.30;;;11.70;74.10;;;9.67;74.80;95498.59;5031753;28;20021;-66
2021/05/01 06:20:11;;;;;;;29.33;23.73;;;11.70;73.50;;;9.70;74.46;95488.50;4994048;28;20125;-67
2021/05/01 06:22:37;;;;;;;36.90;27.75;;;11.90;73.40;;;9.77;74.50;95484.09;5032313;28;20039;-67
2021/05/01 06:25:06;;;;;;;31.13;24.98;;;11.90;73.30;;;9.85;75.32;95482.28;5015184;28;20036;-66
2021/05/01 06:27:32;;;;;;;31.75;24.92;;;12.00;73.60;;;9.89;74.73;95468.53;5032126;28;20036;-67
2021/05/01 06:29:58;;;;;;;31.42;25.30;;;12.10;73.00;;;9.95;74.51;95466.91;5015297;28;20049;-67
2021/05/01 06:32:24;;;;;;;32.22;25.33;;;12.00;72.80;;;10.00;73.98;95475.03;4995387;28;20112;-67
2021/05/01 06:34:57;;;;;;;32.20;24.92;;;12.00;73.00;;;10.02;73.62;95467.75;5012020;28;20049;-66
2021/05/01 06:37:23;;;;;;;30.67;24.80;;;12.10;71.90;;;10.05;73.49;95464.72;5011462;28;20025;-67
2021/05/01 06:39:50;;;;;;;32.10;25.05;;;12.10;72.30;;;10.07;73.49;95462.69;4998843;28;20045;-66
2021/05/01 06:42:30;;;;;;;31.70;25.50;;;12.10;72.60;;;10.10;73.78;95464.94;5015625;28;20072;-66
2021/05/01 06:45:12;;;;;;;36.70;27.17;;;12.20;72.30;;;10.13;73.80;95475.03;5049245;28;20048;-66
2021/05/01 06:47:53;;;;;;;34.85;26.85;;;12.20;72.30;;;10.18;74.33;95484.94;5015551;28;20501;-66
2021/05/01 06:50:26;;;;;;;34.45;27.30;;;12.20;72.40;;;10.21;73.76;95477.50;5016930;28;20544;-66
2021/05/01 06:52:51;;;;;;;33.97;26.15;;;12.30;72.10;;;10.26;73.38;95474.28;4998662;28;20063;-68
2021/05/01 06:55:19;;;;;;;33.67;27.88;;;12.30;72.00;;;10.30;74.36;95484.19;5015078;28;20075;-66
2021/05/01 06:57:49;;;;;;;33.03;26.25;;;12.50;72.20;;;10.34;73.64;95477.50;5014378;28;20041;-66
2021/05/01 07:00:17;;;;;;;33.13;26.33;;;12.50;72.20;;;10.40;73.85;95481.94;4995057;28;20064;-66
2021/05/01 07:02:44;;;;;;;33.00;25.55;;;12.50;71.50;;;10.43;73.07;95486.00;5013850;28;20076;-66
2021/05/01 07:05:23;;;;;;;34.40;26.45;;;12.50;71.30;;;10.45;72.51;95497.13;4998612;28;20053;-66
2021/05/01 07:07:49;;;;;;;29.70;23.90;;;12.40;71.30;;;10.50;73.12;95507.03;5014851;28;20025;-67
2021/05/01 07:10:15;;;;;;;33.55;25.92;;;12.60;71.00;;;10.56;72.86;95511.47;5014779;28;20614;-67
2021/05/01 07:12:41;;;;;;;30.27;24.30;;;12.70;70.20;;;10.62;72.51;95505.38;5030822;28;20035;-67
2021/05/01 07:15:18;;;;;;;25.33;21.83;;;12.70;70.10;;;10.65;72.42;95505.00;5048412;28;20036;-67
2021/05/01 07:17:45;;;;;;;29.13;23.23;;;12.70;69.90;;;10.63;72.17;95512.28;5015374;28;20025;-67
2021/05/01 07:20:12;;;;;;;31.17;24.20;;;12.70;68.70;;;10.59;71.83;95516.31;5012097;28;20084;-67
2021/05/01 07:22:38;;;;;;;27.35;22.85;;;12.50;69.20;;;10.59;71.33;95516.31;4994974;28;20036;-67
2021/05/01 07:25:06;;;;;;;30.15;23.58;;;12.50;69.00;;;10.60;71.96;95507.41;5046685;28;20029;-68
2021/05/01 07:28:04;;;;;;;30.20;23.98;;;12.70;69.70;;;10.64;71.08;95495.50;5014139;28;20033;-67
2021/05/01 07:30:38;;;;;;;30.30;24.40;;;12.70;69.40;;;10.67;71.27;95489.84;5038680;28;20044;-68
2021/05/01 07:33:35;;;;;;;33.10;25.25;;;12.80;69.90;;;10.71;72.56;95493.66;5013907;28;20032;-67
2021/05/01 07:36:12;;;;;;;31.48;25.60;;;12.80;69.50;;;10.76;72.91;95496.50;5014645;28;20037;-67
2021/05/01 07:38:38;;;;;;;32.15;24.58;;;13.00;70.10;;;10.86;71.88;95485.53;5026364;28;20052;-68
2021/05/01 07:41:04;;;;;;;32.15;25.23;;;13.20;69.60;;;11.00;71.40;95464.25;5001318;28;20095;-67
2021/05/01 07:43:30;;;;;;;29.90;24.63;;;13.60;68.10;;;11.22;71.50;95474.50;5025641;28;20032;-67
2021/05/01 07:46:06;;;;;;;32.95;24.30;;;13.90;67.20;;;11.40;69.59;95482.56;5020613;28;20258;-67
2021/05/01 07:48:31;;;;;;;30.10;23.27;;;13.90;64.90;;;11.54;70.32;95473.59;5030375;28;20618;-69
2021/05/01 07:50:57;;;;;;;28.13;23.02;;;14.10;65.50;;;11.72;70.65;95453.63;5013299;28;20361;-67
2021/05/01 07:53:23;;;;;;;30.67;23.45;;;14.60;64.40;;;12.02;71.17;95449.44;5020096;28;20739;-68
2021/05/01 07:55:49;;;;;;;28.70;23.00;;;15.30;63.60;;;12.37;70.90;95446.31;5018603;28;20502;-65
2021/05/01 07:58:14;;;;;;;26.58;21.38;;;15.50;63.10;;;12.65;70.31;95432.66;5009364;28;20037;-70
2021/05/01 08:00:43;;;;;;;25.77;20.67;;;15.60;62.50;;;12.83;69.65;95430.03;4995788;28;20121;-70
2021/05/01 08:03:09;;;;;;;26.67;21.75;;;15.80;59.90;;;13.04;69.05;95423.53;5024748;28;20641;-71
2021/05/01 08:05:34;;;;;;;27.58;23.02;;;16.20;59.40;;;13.37;68.75;95421.34;5013367;28;20025;-70
2021/05/01 08:08:00;;;;;;;25.73;20.33;;;16.80;59.00;;;13.68;68.19;95422.13;5029753;28;20045;-71
2021/05/01 08:10:26;;;;;;;24.27;20.40;;;17.00;55.70;;;13.86;66.95;95419.44;5029699;28;20051;-70
2021/05/01 08:12:52;;;;;;;22.83;19.45;;;17.10;56.10;;;13.99;66.40;95408.66;5024567;28;20071;-71
2021/05/01 08:15:18;;;;;;;23.08;17.92;;;17.20;54.90;;;14.23;66.92;95406.06;5029759;28;20029;-71
2021/05/01 08:17:43;;;;;;;20.90;18.17;;;17.60;54.60;;;14.52;66.39;95407.84;5028294;28;20083;-69
2021/05/01 08:20:11;;;;;;;21.40;18.23;;;17.80;54.70;;;14.81;65.78;95394.69;5047113;28;20025;-68
2021/05/01 08:22:37;;;;;;;22.75;18.38;;;17.90;55.10;;;15.02;64.67;95391.44;5029645;28;20033;-68
2021/05/01 08:25:07;;;;;;;20.92;18.13;;;18.20;54.80;;;15.26;63.55;95400.94;4994649;28;20075;-68
2021/05/01 08:27:33;;;;;;;21.65;18.00;;;18.40;53.20;;;15.43;64.97;95402.84;5029130;28;20102;-68
2021/05/01 08:29:59;;;;;;;23.08;17.95;;;18.30;53.10;;;15.50;63.23;95395.56;5029380;28;20037;-69
2021/05/01 08:32:24;;;;;;;19.27;16.70;;;18.30;52.70;;;15.63;62.65;95387.38;5047319;28;20072;-69
2021/05/01 08:34:50;;;;;;;20.27;16.90;;;18.50;52.40;;;15.83;62.99;95378.94;5028898;28;20572;-68
2021/05/01 08:37:16;;;;;;;20.27;17.02;;;19.00;51.20;;;16.08;61.84;95367.97;5028422;28;20041;-68
2021/05/01 08:39:42;;;;;;;23.50;17.55;;;19.70;49.60;;;16.30;62.35;95368.84;5012939;28;20695;-68
2021/05/01 08:42:08;;;;;;;20.42;17.10;;;19.70;49.20;;;16.43;60.61;95373.81;5029278;28;20455;-68
2021/05/01 08:44:33;;;;;;;19.88;16.40;;;19.60;49.70;;;16.55;61.20;95379.03;5012038;28;20071;-69
2021/05/01 08:46:59;;;;;;;18.75;16.75;;;19.60;48.50;;;16.56;60.70;95377.19;5025657;28;20094;-69
2021/05/01 08:49:25;;;;;;;19.90;16.55;;;19.40;49.10;;;16.60;59.50;95391.59;5012810;28;20044;-68
2021/05/01 08:51:51;;;;;;;19.90;15.95;;;19.40;49.00;;;16.62;59.17;95384.19;5028525;28;20036;-69
2021/05/01 08:54:16;;;;;;;17.30;15.00;;;19.40;49.10;;;16.52;59.59;95406.88;5012482;28;20033;-69
2021/05/01 08:56:43;;;;;;;17.48;14.60;;;19.20;48.30;;;16.60;59.22;95402.22;5027767;28;20504;-69
2021/05/01 08:59:08;;;;;;;13.60;11.95;;;19.60;48.60;;;16.69;57.86;95384.81;5046055;28;20029;-68
2021/05/01 09:01:38;;;;;;;13.95;12.35;;;19.80;46.10;;;16.63;57.92;95386.59;5027196;28;20052;-68
2021/05/01 09:04:08;;;;;;;16.35;14.60;;;19.60;46.30;;;16.71;56.45;95385.38;5013529;28;20128;-68
2021/05/01 09:06:34;;;;;;;19.05;16.85;;;19.90;46.50;;;16.84;58.20;95387.72;5012083;28;20036;-67
2021/05/01 09:09:04;;;;;;;16.70;14.73;;;20.00;49.10;;;16.90;56.98;95392.03;5027883;28;20059;-67
2021/05/01 09:11:46;;;;;;;16.50;14.70;;;19.70;48.00;;;16.91;55.78;95398.94;5028437;28;20059;-67
2021/05/01 09:14:21;;;;;;;17.23;14.38;;;19.80;47.80;;;17.06;55.57;95401.00;5017889;28;20067;-67
2021/05/01 09:17:02;;;;;;;16.20;14.48;;;20.10;47.20;;;17.14;54.76;95388.09;5049823;28;20528;-67
2021/05/01 09:19:41;;;;;;;17.75;14.23;;;20.60;45.40;;;17.18;53.62;95387.59;5049933;28;20049;-66
2021/05/01 09:22:09;;;;;;;15.73;14.05;;;20.50;45.20;;;17.26;55.56;95384.53;5031629;28;20045;-67
2021/05/01 09:24:35;;;;;;;14.30;12.50;;;20.60;43.90;;;17.37;56.01;95376.41;5050184;28;20116;-68
2021/05/01 09:27:01;;;;;;;14.57;13.00;;;20.60;44.00;;;17.35;55.18;95375.03;5031407;28;20039;-67
2021/05/01 09:29:35;;;;;;;14.32;12.77;;;20.40;43.40;;;17.31;53.28;95377.41;5031964;28;20037;-67
2021/05/01 09:32:02;;;;;;;17.08;14.35;;;20.60;44.30;;;17.39;55.20;95384.13;5031696;28;20413;-68
2021/05/01 09:34:43;;;;;;;14.95;13.32;;;20.40;44.20;;;17.41;52.44;95377.50;5032705;28;20048;-67
2021/05/01 09:37:08;;;;;;;13.50;12.10;;;20.40;44.40;;;17.47;54.60;95377.59;5031690;28;20512;-70
2021/05/01 09:39:34;;;;;;;16.10;12.77;;;20.30;43.70;;;17.53;54.52;95369.41;4987997;28;20045;-70
2021/05/01 09:42:16;;;;;;;15.23;12.75;;;20.40;45.00;;;17.60;52.01;95375.31;5014730;28;20171;-69
2021/05/01 09:44:42;;;;;;;15.25;13.35;;;20.50;44.40;;;17.58;53.78;95369.44;4992790;28;20067;-66
2021/05/01 09:47:16;;;;;;;16.70;13.43;;;20.40;43.60;;;17.58;52.08;95363.31;5005264;28;20029;-66
2021/05/01 09:49:46;;;;;;;13.95;12.45;;;20.40;44.70;;;17.49;51.04;95370.97;5043241;28;20161;-65
2021/05/01 09:52:14;;;;;;;16.00;13.77;;;20.20;43.80;;;17.37;53.08;95364.97;5015267;28;20546;-66
2021/05/01 09:54:44;;;;;;;17.33;13.80;;;20.20;44.70;;;17.33;52.74;95358.53;5037447;28;20060;-68
2021/05/01 09:57:10;;;;;;;14.88;13.27;;;20.30;44.70;;;17.35;53.78;95343.16;5009151;28;20034;-66
2021/05/01 09:59:49;;;;;;;15.48;13.65;;;20.20;44.80;;;17.26;52.32;95353.44;5042522;28;20037;-66
2021/05/01 10:02:19;;;;;;;14.77;13.27;;;20.00;45.60;;;17.32;52.73;95344.44;5028927;28;20036;-64
2021/05/01 10:05:10;;;;;;;15.38;13.18;;;19.80;46.60;;;17.30;52.97;95343.09;4980960;28;20068;-69
2021/05/01 10:07:39;;;;;;;14.18;12.20;;;19.80;47.40;;;17.23;53.39;95337.97;5036555;28;20040;-70
2021/05/01 10:10:07;;;;;;;15.77;12.70;;;19.90;45.80;;;17.35;53.43;95341.28;4997946;28;20037;-71
2021/05/01 10:12:40;;;;;;;14.02;12.55;;;20.10;46.60;;;17.45;52.26;95329.97;5017375;28;20052;-71
2021/05/01 10:15:27;;;;;;;19.88;15.88;;;20.40;44.60;;;17.66;52.28;95331.78;4998215;28;20033;-71